Time;durP1;ratioP1;P1;durP2;ratioP2;P2;SDS_P1;SDS_P2;PMS_P1;PMS_P2;Temp;Humidity;BMP_temperature;BMP_pressure;BME280_temperature;BME280_humidity;BME280_pressure;Samples;Min_cycle;Max_cycle;Signal;HPM_P1;HPM_P2
2022/08/13 00:01:13;;;;;;;;;;;;;;;19.70;96.60;95028.03;5116178;28;2595;-49
2022/08/13 00:03:40;;;;;;;;;;;;;;;19.72;97.09;95036.00;5116453;28;1140;-49
2022/08/13 00:06:10;;;;;;;;;;;;;;;19.78;96.93;95026.97;5116551;28;988;-49
2022/08/13 00:08:37;;;;;;;;;;;;;;;19.80;95.52;95019.44;5116706;28;1012;-49
2022/08/13 00:11:05;;;;;;;;;;;;;;;19.82;95.11;95016.50;5115956;28;1096;-49
2022/08/13 00:13:31;;;;;;;;;;;;;;;19.62;95.68;95022.06;5116414;28;954;-49
2022/08/13 00:15:59;;;;;;;;;;;;;;;19.51;97.00;95020.91;5116249;28;973;-49
2022/08/13 00:18:26;;;;;;;;;;;;;;;19.49;96.62;95020.28;5116318;28;1897;-49
2022/08/13 00:20:54;;;;;;;;;;;;;;;19.46;97.27;95020.72;5116043;28;1040;-49
2022/08/13 00:23:21;;;;;;;;;;;;;;;19.43;97.14;95018.47;5116232;28;973;-49
2022/08/13 00:25:49;;;;;;;;;;;;;;;19.36;97.12;95017.69;5115995;28;1988;-49
2022/08/13 00:28:16;;;;;;;;;;;;;;;19.34;97.35;95014.34;5116055;28;1080;-49
2022/08/13 00:30:43;;;;;;;;;;;;;;;19.46;96.40;95015.28;5115849;28;1647;-49
2022/08/13 00:33:12;;;;;;;;;;;;;;;19.51;96.79;95007.34;5116042;28;1221;-49
2022/08/13 00:35:41;;;;;;;;;;;;;;;19.47;96.75;95011.56;5115792;28;1025;-49
2022/08/13 00:38:08;;;;;;;;;;;;;;;19.46;96.67;95004.44;5115711;28;1980;-49
2022/08/13 00:40:35;;;;;;;;;;;;;;;19.46;96.58;95005.31;5115754;28;1091;-49
2022/08/13 00:43:02;;;;;;;;;;;;;;;19.46;96.78;95008.00;5115384;28;1156;-49
2022/08/13 00:45:30;;;;;;;;;;;;;;;19.44;97.32;95009.25;5115095;28;1052;-49
2022/08/13 00:50:40;;;;;;;;;;;;;;;19.49;96.28;94994.00;5115738;28;1032;-49
2022/08/13 00:53:17;;;;;;;;;;;;;;;19.39;96.65;94995.53;5115379;28;1092;-49
2022/08/13 00:55:48;;;;;;;;;;;;;;;19.30;97.31;94993.09;5115545;28;969;-49
2022/08/13 00:58:18;;;;;;;;;;;;;;;19.28;97.75;94989.78;5115604;28;1902;-49
2022/08/13 01:00:47;;;;;;;;;;;;;;;19.32;97.78;94990.16;5115518;28;1031;-49
2022/08/13 01:03:13;;;;;;;;;;;;;;;19.44;96.18;94993.00;5115426;28;2614;-49
2022/08/13 01:05:40;;;;;;;;;;;;;;;19.43;96.42;94992.19;5115059;28;1021;-49
2022/08/13 01:08:07;;;;;;;;;;;;;;;19.31;96.43;94991.22;5115249;28;1017;-49
2022/08/13 01:10:34;;;;;;;;;;;;;;;19.21;97.26;94988.16;5115166;28;1032;-49
2022/08/13 01:13:00;;;;;;;;;;;;;;;19.14;97.29;94988.19;5115107;28;1072;-49
2022/08/13 01:15:27;;;;;;;;;;;;;;;19.11;97.67;94978.63;5114964;28;1012;-49
2022/08/13 01:17:54;;;;;;;;;;;;;;;19.14;97.68;94974.66;5115185;28;1993;-49
2022/08/13 01:20:21;;;;;;;;;;;;;;;19.15;97.62;94989.88;5115034;28;1038;-49
2022/08/13 01:22:49;;;;;;;;;;;;;;;19.22;97.10;94977.09;5115084;28;988;-49
2022/08/13 01:25:16;;;;;;;;;;;;;;;19.30;96.66;94978.72;5106173;28;1036;-49
2022/08/13 01:27:43;;;;;;;;;;;;;;;19.27;97.19;94984.56;5115188;28;1026;-49
2022/08/13 01:30:10;;;;;;;;;;;;;;;19.21;97.49;94972.72;5114956;28;945;-48
2022/08/13 01:32:37;;;;;;;;;;;;;;;19.16;96.38;94980.69;5096722;28;1020;-49
2022/08/13 01:35:05;;;;;;;;;;;;;;;19.18;96.46;94980.47;5114773;28;966;-49
2022/08/13 01:37:31;;;;;;;;;;;;;;;19.17;97.25;94981.53;5114727;28;1025;-49
2022/08/13 01:39:57;;;;;;;;;;;;;;;19.19;97.02;94982.97;5114572;28;1986;-49
2022/08/13 01:42:23;;;;;;;;;;;;;;;19.14;96.79;94981.94;5114291;28;1013;-49
2022/08/13 01:44:50;;;;;;;;;;;;;;;19.13;97.58;94983.84;5114130;28;1196;-49
2022/08/13 01:52:47;;;;;;;;;;;;;;;19.15;97.94;94972.78;5114638;28;1045;-49
2022/08/13 01:55:13;;;;;;;;;;;;;;;19.12;97.96;94979.44;5114132;28;1092;-49
2022/08/13 01:57:44;;;;;;;;;;;;;;;18.98;97.75;94981.44;5114381;28;1037;-49
2022/08/13 02:00:13;;;;;;;;;;;;;;;18.86;98.11;94984.00;5114177;28;1933;-49
2022/08/13 02:02:42;;;;;;;;;;;;;;;18.97;96.69;94973.50;5113798;28;2525;-49
2022/08/13 02:05:10;;;;;;;;;;;;;;;18.96;97.97;94974.56;5114155;28;1049;-49
2022/08/13 02:07:38;;;;;;;;;;;;;;;18.97;98.23;94974.38;5114217;28;1036;-49
2022/08/13 02:10:05;;;;;;;;;;;;;;;19.08;98.17;94983.66;5114232;28;1055;-49
2022/08/13 02:12:31;;;;;;;;;;;;;;;19.17;98.03;94982.34;5113880;28;1048;-49
2022/08/13 02:14:58;;;;;;;;;;;;;;;19.21;98.01;94977.31;5114195;28;961;-49
2022/08/13 02:17:25;;;;;;;;;;;;;;;19.18;98.37;94977.75;5113718;28;1032;-49
2022/08/13 02:19:57;;;;;;;;;;;;;;;19.20;98.40;94971.09;5113942;28;1913;-49
2022/08/13 02:22:24;;;;;;;;;;;;;;;19.19;98.34;94980.25;5113952;28;1024;-49
2022/08/13 02:24:51;;;;;;;;;;;;;;;19.17;98.24;94976.09;5114141;28;1024;-48
2022/08/13 02:27:20;;;;;;;;;;;;;;;19.20;98.71;94964.81;5113799;28;1011;-49
2022/08/13 02:29:47;;;;;;;;;;;;;;;19.30;96.89;94966.00;5113899;28;1556;-49
2022/08/13 02:32:13;;;;;;;;;;;;;;;19.16;97.15;94966.31;5113617;28;1080;-49
2022/08/13 02:34:39;;;;;;;;;;;;;;;19.05;97.80;94975.97;5113796;28;1083;-49
2022/08/13 02:37:05;;;;;;;;;;;;;;;19.03;97.73;94975.38;5113487;28;1021;-49
2022/08/13 02:39:31;;;;;;;;;;;;;;;19.03;98.35;94970.78;5113762;28;1911;-49
2022/08/13 02:41:57;;;;;;;;;;;;;;;19.11;97.77;94975.09;5113701;28;1019;-49
2022/08/13 02:44:25;;;;;;;;;;;;;;;19.11;97.34;94972.38;5113506;28;1157;-49
2022/08/13 02:46:51;;;;;;;;;;;;;;;19.11;98.07;94969.69;5113511;28;964;-49
2022/08/13 02:49:17;;;;;;;;;;;;;;;19.13;98.20;94966.75;5113517;28;1044;-49
2022/08/13 02:51:44;;;;;;;;;;;;;;;19.10;98.19;94968.00;5113398;28;1087;-49
2022/08/13 02:54:11;;;;;;;;;;;;;;;19.08;98.61;94965.53;5113621;28;1103;-49
2022/08/13 02:56:37;;;;;;;;;;;;;;;18.99;98.25;94969.56;5114957;28;985;-49
2022/08/13 02:59:10;;;;;;;;;;;;;;;18.99;98.73;94969.56;5117598;28;2004;-49
2022/08/13 03:01:38;;;;;;;;;;;;;;;19.15;97.88;94972.78;5117816;28;2606;-49
2022/08/13 03:04:05;;;;;;;;;;;;;;;19.21;96.63;94974.63;5117497;28;1029;-48
2022/08/13 03:06:31;;;;;;;;;;;;;;;19.21;97.48;94975.44;5099601;28;1028;-49
2022/08/13 03:08:58;;;;;;;;;;;;;;;19.11;97.53;94980.53;5117733;28;965;-49
2022/08/13 03:11:23;;;;;;;;;;;;;;;19.04;98.10;94977.00;5117563;28;1066;-49
2022/08/13 03:13:55;;;;;;;;;;;;;;;18.92;98.68;94974.19;5117493;28;965;-49
2022/08/13 03:16:23;;;;;;;;;;;;;;;18.86;98.83;94980.47;5117355;28;1099;-49
2022/08/13 03:18:49;;;;;;;;;;;;;;;18.93;98.77;94986.66;5117249;28;1986;-49
2022/08/13 03:21:16;;;;;;;;;;;;;;;18.97;98.68;94982.50;5117416;28;1031;-48
2022/08/13 03:23:43;;;;;;;;;;;;;;;19.01;98.55;94982.84;5117336;28;1072;-49
2022/08/13 03:26:11;;;;;;;;;;;;;;;18.98;98.63;94989.56;5117236;28;1040;-48
2022/08/13 03:28:38;;;;;;;;;;;;;;;18.96;98.86;94986.22;5117084;28;1143;-49
2022/08/13 03:31:05;;;;;;;;;;;;;;;18.96;98.43;94980.00;5117291;28;1045;-49
2022/08/13 03:33:32;;;;;;;;;;;;;;;18.96;98.10;94990.81;5117198;28;1032;-49
2022/08/13 03:35:58;;;;;;;;;;;;;;;18.95;97.79;94981.03;5117230;28;1012;-49
2022/08/13 03:38:24;;;;;;;;;;;;;;;18.90;98.28;94987.94;5116888;28;1930;-48
2022/08/13 03:41:08;;;;;;;;;;;;;;;18.98;98.47;94992.25;5117110;28;996;-48
2022/08/13 03:43:34;;;;;;;;;;;;;;;19.00;98.70;94986.63;5116828;28;1188;-49
2022/08/13 03:46:00;;;;;;;;;;;;;;;18.98;98.52;94988.72;5117180;28;967;-49
2022/08/13 03:48:26;;;;;;;;;;;;;;;18.82;99.27;94996.31;5116798;28;1063;-49
2022/08/13 03:50:52;;;;;;;;;;;;;;;18.83;98.73;94992.53;5116873;28;1040;-49
2022/08/13 03:53:20;;;;;;;;;;;;;;;18.88;99.12;94991.91;5116353;28;1175;-49
2022/08/13 03:55:47;;;;;;;;;;;;;;;18.98;98.26;94994.97;5116755;28;1644;-49
2022/08/13 03:58:15;;;;;;;;;;;;;;;19.03;99.05;94994.34;5116670;28;1991;-49
2022/08/13 04:00:42;;;;;;;;;;;;;;;19.04;98.98;94991.38;5116587;28;1036;-49
2022/08/13 04:03:20;;;;;;;;;;;;;;;19.11;99.07;94999.50;5116316;28;2619;-49
2022/08/13 04:05:52;;;;;;;;;;;;;;;19.11;99.08;94996.78;5116748;28;977;-49
2022/08/13 04:08:20;;;;;;;;;;;;;;;19.12;99.06;94995.72;5115807;28;1041;-49
2022/08/13 04:10:46;;;;;;;;;;;;;;;19.11;98.49;94992.19;5116644;28;1027;-49
2022/08/13 04:13:15;;;;;;;;;;;;;;;19.14;99.14;94998.22;5116340;28;1040;-49
2022/08/13 04:15:42;;;;;;;;;;;;;;;19.18;98.98;94992.16;5116409;28;1041;-49
2022/08/13 04:18:12;;;;;;;;;;;;;;;19.24;99.21;94987.75;5115948;28;1910;-48
2022/08/13 04:20:39;;;;;;;;;;;;;;;19.28;98.80;94988.97;5116219;28;984;-48
2022/08/13 04:23:07;;;;;;;;;;;;;;;19.30;98.05;94986.84;5116059;28;1049;-48
2022/08/13 04:25:35;;;;;;;;;;;;;;;19.31;98.30;94985.78;5116372;28;1069;-48
2022/08/13 04:28:01;;;;;;;;;;;;;;;19.11;99.30;94992.19;5116154;28;1049;-47
2022/08/13 04:30:27;;;;;;;;;;;;;;;19.04;99.42;94988.66;5116191;28;1234;-48
2022/08/13 04:32:54;;;;;;;;;;;;;;;19.09;98.72;94991.56;5116045;28;1229;-48
2022/08/13 04:35:20;;;;;;;;;;;;;;;19.08;98.75;94989.94;5115978;28;1041;-48
2022/08/13 04:37:45;;;;;;;;;;;;;;;19.16;99.84;94990.69;5115997;28;984;-48
2022/08/13 04:40:13;;;;;;;;;;;;;;;19.22;99.02;94993.38;5116022;28;1905;-48
2022/08/13 04:42:46;;;;;;;;;;;;;;;19.30;99.10;94981.44;5116138;28;1036;-48
2022/08/13 04:45:13;;;;;;;;;;;;;;;19.42;98.00;94986.97;5115524;28;1121;-48
2022/08/13 04:47:40;;;;;;;;;;;;;;;19.46;97.29;94982.75;5115820;28;1028;-48
2022/08/13 04:50:07;;;;;;;;;;;;;;;19.44;97.63;94985.69;5115570;28;1502;-48
2022/08/13 04:52:33;;;;;;;;;;;;;;;19.45;97.48;94979.22;5115916;28;1032;-48
2022/08/13 04:55:02;;;;;;;;;;;;;;;19.46;97.61;94980.06;5114580;28;1250;-48
2022/08/13 04:57:28;;;;;;;;;;;;;;;19.54;98.44;94976.22;5114609;28;1075;-49
2022/08/13 04:59:55;;;;;;;;;;;;;;;19.49;97.43;94983.16;5114422;28;1902;-48
2022/08/13 05:02:21;;;;;;;;;;;;;;;19.60;96.25;94978.91;5114492;28;981;-48
2022/08/13 05:04:48;;;;;;;;;;;;;;;19.55;97.47;94983.34;5114326;28;1068;-49
2022/08/13 05:07:15;;;;;;;;;;;;;;;19.59;98.15;94987.25;5114649;28;953;-48
2022/08/13 05:09:41;;;;;;;;;;;;;;;19.68;97.34;94984.03;5114378;28;964;-48
2022/08/13 05:12:07;;;;;;;;;;;;;;;19.65;96.82;94983.66;5114488;28;969;-48
2022/08/13 05:14:34;;;;;;;;;;;;;;;19.64;95.51;94982.00;5114220;28;1989;-48
2022/08/13 05:17:00;;;;;;;;;;;;;;;19.65;95.97;94979.09;5114311;28;1036;-48
2022/08/13 05:19:26;;;;;;;;;;;;;;;19.68;95.71;94984.03;5112886;28;1902;-48
2022/08/13 05:21:52;;;;;;;;;;;;;;;19.70;95.40;94981.13;5114444;28;1025;-48
2022/08/13 05:31:37;;;;;;;;;;;;;;;19.10;99.24;94985.13;5131001;27;2364;-49
2022/08/13 05:34:05;;;;;;;;;;;;;;;19.33;98.22;94980.16;5130289;28;2297;-48
2022/08/13 05:36:31;;;;;;;;;;;;;;;19.48;97.26;94977.94;5128648;28;1416;-48
2022/08/13 05:38:58;;;;;;;;;;;;;;;19.55;97.56;94975.19;5131625;27;1078;-48
2022/08/13 05:41:25;;;;;;;;;;;;;;;19.59;97.34;94979.94;5131501;27;1035;-49
2022/08/13 05:43:52;;;;;;;;;;;;;;;19.62;97.27;94970.56;5131365;27;1164;-47
2022/08/13 05:46:19;;;;;;;;;;;;;;;19.60;97.18;94976.19;5130933;27;2566;-47
2022/08/13 05:48:56;;;;;;;;;;;;;;;19.64;95.72;94977.41;5130782;27;1228;-48
2022/08/13 05:51:25;;;;;;;;;;;;;;;19.65;96.27;94980.94;5130947;28;1933;-48
2022/08/13 05:53:55;;;;;;;;;;;;;;;19.62;95.10;94978.69;5131337;28;960;-48
2022/08/13 05:56:24;;;;;;;;;;;;;;;19.64;96.08;94977.41;5130788;28;1092;-49
2022/08/13 05:58:51;;;;;;;;;;;;;;;19.75;95.18;94978.59;5131081;28;1067;-48
2022/08/13 06:04:14;;;;;;;;;;;;;;;19.93;95.72;94985.94;5131008;28;975;-48
2022/08/13 06:06:41;;;;;;;;;;;;;;;19.93;95.60;94988.66;5131014;28;1007;-48
2022/08/13 06:09:07;;;;;;;;;;;;;;;19.97;94.88;94981.72;5130920;28;980;-48
2022/08/13 06:11:34;;;;;;;;;;;;;;;20.08;94.00;94989.13;5130465;28;1955;-48
2022/08/13 06:14:00;;;;;;;;;;;;;;;20.00;94.95;94984.00;5130687;28;1192;-48
2022/08/13 06:16:30;;;;;;;;;;;;;;;19.97;96.08;94986.31;5130415;28;2063;-49
2022/08/13 06:18:59;;;;;;;;;;;;;;;19.92;96.37;94989.72;5130383;28;1299;-48
2022/08/13 06:21:26;;;;;;;;;;;;;;;19.95;96.48;94989.25;5130277;27;1315;-49
2022/08/13 06:23:53;;;;;;;;;;;;;;;19.97;96.95;94986.31;5130520;28;2601;-49
2022/08/13 06:26:21;;;;;;;;;;;;;;;20.01;94.86;94982.94;5130171;27;1110;-48
2022/08/13 06:28:49;;;;;;;;;;;;;;;20.01;96.13;94982.94;5130951;27;1135;-48
2022/08/13 06:31:20;;;;;;;;;;;;;;;19.96;97.93;94990.94;5130135;27;1988;-51
2022/08/13 06:33:46;;;;;;;;;;;;;;;19.94;96.85;94976.75;5130588;27;1015;-48
2022/08/13 06:36:13;;;;;;;;;;;;;;;19.98;97.86;94983.38;5130166;28;1024;-49
2022/08/13 06:38:44;;;;;;;;;;;;;;;19.97;97.72;94984.44;5130151;27;1272;-49
2022/08/13 06:41:11;;;;;;;;;;;;;;;20.03;98.20;94985.41;5127138;27;1178;-50
2022/08/13 06:43:41;;;;;;;;;;;;;;;20.08;97.01;94989.13;5116447;28;1204;-50
2022/08/13 06:46:08;;;;;;;;;;;;;;;20.11;97.01;94995.16;5116303;27;956;-50
2022/08/13 06:48:35;;;;;;;;;;;;;;;20.15;98.05;94980.09;5116641;28;1042;-50
2022/08/13 06:51:03;;;;;;;;;;;;;;;20.06;97.12;94991.22;5116145;28;1902;-49
2022/08/13 06:53:30;;;;;;;;;;;;;;;20.11;96.87;94992.44;5116450;28;953;-49
2022/08/13 06:55:56;;;;;;;;;;;;;;;20.08;98.05;94989.13;5116139;28;916;-50
2022/08/13 06:58:25;;;;;;;;;;;;;;;20.07;96.76;94987.47;5116315;28;2108;-50
2022/08/13 07:00:53;;;;;;;;;;;;;;;20.09;97.34;94998.94;5116091;28;1048;-50
2022/08/13 07:03:19;;;;;;;;;;;;;;;20.12;97.25;95002.25;5116291;28;1008;-50
2022/08/13 07:05:46;;;;;;;;;;;;;;;20.21;97.31;95003.63;5116087;28;1031;-50
2022/08/13 07:08:12;;;;;;;;;;;;;;;20.30;96.54;95013.13;5116018;28;1050;-50
2022/08/13 07:11:21;;;;;;;;;;;;;;;20.33;95.71;95009.97;5115247;28;1997;-50
2022/08/13 07:13:36;;;;;;;;;;;;;;;20.39;95.97;95010.94;5115106;28;1663;-50
2022/08/13 07:16:03;;;;;;;;;;;;;;;20.38;95.35;95010.13;5115679;28;1228;-50
2022/08/13 07:18:30;;;;;;;;;;;;;;;20.42;96.72;95013.22;5115757;28;928;-50
2022/08/13 07:20:56;;;;;;;;;;;;;;;20.35;96.42;95013.28;5115752;28;1051;-50
2022/08/13 07:23:22;;;;;;;;;;;;;;;20.29;97.92;95016.91;5115812;28;2567;-50
2022/08/13 07:25:49;;;;;;;;;;;;;;;20.36;97.03;95025.81;5115901;28;1031;-50
2022/08/13 07:28:19;;;;;;;;;;;;;;;20.38;95.45;95025.59;5115892;28;1039;-49
2022/08/13 07:30:46;;;;;;;;;;;;;;;20.45;95.57;95027.19;5115520;28;1982;-49
2022/08/13 07:33:13;;;;;;;;;;;;;;;20.53;94.38;95020.63;5115678;28;973;-49
2022/08/13 07:35:39;;;;;;;;;;;;;;;20.50;92.58;95025.66;5115900;28;956;-49
2022/08/13 07:38:05;;;;;;;;;;;;;;;20.43;92.66;95023.00;5115431;28;909;-49
2022/08/13 07:40:33;;;;;;;;;;;;;;;20.49;93.39;95027.56;5115848;28;969;-49
2022/08/13 07:43:01;;;;;;;;;;;;;;;20.55;92.60;95036.69;5115532;28;973;-49
2022/08/13 07:45:27;;;;;;;;;;;;;;;20.67;90.97;95024.84;5095136;28;956;-49
2022/08/13 07:47:54;;;;;;;;;;;;;;;20.77;89.44;95023.50;5094793;28;1040;-50
2022/08/13 07:50:20;;;;;;;;;;;;;;;20.83;89.67;95033.44;5094785;28;1993;-49
2022/08/13 07:52:55;;;;;;;;;;;;;;;20.90;90.46;95027.94;5094463;28;1151;-49
2022/08/13 07:55:22;;;;;;;;;;;;;;;20.91;90.49;95024.16;5094695;28;1095;-52
2022/08/13 07:57:49;;;;;;;;;;;;;;;20.87;88.36;95029.22;5094696;28;991;-50
2022/08/13 08:00:21;;;;;;;;;;;;;;;20.87;90.13;95026.50;5094742;28;916;-49
2022/08/13 08:02:57;;;;;;;;;;;;;;;20.95;90.26;95031.63;5095003;28;1054;-50
2022/08/13 08:05:24;;;;;;;;;;;;;;;21.05;91.36;95031.91;5094690;28;1012;-49
2022/08/13 08:07:51;;;;;;;;;;;;;;;21.05;89.61;95028.34;5094599;28;956;-49
2022/08/13 08:10:20;;;;;;;;;;;;;;;21.23;89.50;95027.50;5094376;28;1988;-50
2022/08/13 08:12:46;;;;;;;;;;;;;;;21.29;88.99;95028.47;5094440;28;1071;-50
2022/08/13 08:15:12;;;;;;;;;;;;;;;21.32;87.93;95030.72;5094711;28;995;-50
2022/08/13 08:17:40;;;;;;;;;;;;;;;21.40;88.06;95024.97;5094484;28;1064;-50
2022/08/13 08:20:06;;;;;;;;;;;;;;;21.52;88.17;95030.47;5094303;28;992;-49
2022/08/13 08:22:33;;;;;;;;;;;;;;;21.39;87.36;95032.28;5094353;28;1047;-50
2022/08/13 08:25:01;;;;;;;;;;;;;;;21.36;89.31;95023.75;5114464;28;2851;-49
2022/08/13 08:27:27;;;;;;;;;;;;;;;21.22;86.78;95026.66;5114436;28;1032;-47
2022/08/13 08:29:53;;;;;;;;;;;;;;;21.32;88.61;95028.81;5114605;28;1902;-48
2022/08/13 08:32:19;;;;;;;;;;;;;;;21.44;88.76;95029.72;5114287;28;1024;-48
2022/08/13 08:34:47;;;;;;;;;;;;;;;21.50;90.03;95022.53;5114493;28;1032;-48
2022/08/13 08:42:35;;;;;;;;;;;;;;;21.55;89.60;95029.97;5114367;28;996;-47
2022/08/13 08:42:48;;;;;;;;;;;;;;;21.62;87.86;95031.53;5114106;28;1132;-47
2022/08/13 08:45:18;;;;;;;;;;;;;;;21.61;87.38;95032.59;5114299;28;1165;-48
2022/08/13 08:47:45;;;;;;;;;;;;;;;21.59;89.92;95029.28;5114007;28;885;-48
2022/08/13 08:50:11;;;;;;;;;;;;;;;21.71;89.92;95028.50;5113944;28;1992;-48
2022/08/13 08:55:24;;;;;;;;;;;;;;;22.03;87.71;95016.22;5112847;28;1077;-47
2022/08/13 08:57:51;;;;;;;;;;;;;;;22.20;86.79;95015.53;5113628;28;1149;-47
2022/08/13 09:00:18;;;;;;;;;;;;;;;22.24;85.79;95011.25;5113942;28;1027;-47
2022/08/13 09:02:56;;;;;;;;;;;;;;;22.16;86.41;95012.44;5113996;28;1058;-47
2022/08/13 09:05:24;;;;;;;;;;;;;;;22.28;86.76;95017.09;5113585;28;1044;-47
2022/08/13 09:07:50;;;;;;;;;;;;;;;22.32;86.49;95012.81;5113242;28;1032;-47
2022/08/13 09:10:18;;;;;;;;;;;;;;;22.53;85.03;95003.19;5113861;28;1997;-47
2022/08/13 09:12:45;;;;;;;;;;;;;;;22.52;84.40;95005.09;5113373;28;949;-47
2022/08/13 09:15:12;;;;;;;;;;;;;;;22.59;84.51;95003.09;5113882;28;960;-52
2022/08/13 09:17:39;;;;;;;;;;;;;;;22.58;84.61;94993.25;5112896;28;972;-47
2022/08/13 09:20:11;;;;;;;;;;;;;;;22.57;84.71;94998.91;5113621;28;1099;-47
2022/08/13 09:22:39;;;;;;;;;;;;;;;22.68;83.07;95000.78;5113794;28;2603;-47
2022/08/13 09:25:05;;;;;;;;;;;;;;;22.66;81.72;94986.59;5113812;28;964;-48
2022/08/13 09:27:31;;;;;;;;;;;;;;;22.70;81.84;94993.19;5113814;28;1028;-47
2022/08/13 09:29:58;;;;;;;;;;;;;;;22.65;82.32;94993.13;5113445;28;1991;-47
2022/08/13 09:32:24;;;;;;;;;;;;;;;22.80;79.74;94982.53;5113662;28;976;-47
2022/08/13 09:34:50;;;;;;;;;;;;;;;23.13;78.02;94988.38;5113497;28;1009;-47
2022/08/13 09:37:17;;;;;;;;;;;;;;;23.21;77.27;94985.25;5113484;28;1016;-47
2022/08/13 09:39:49;;;;;;;;;;;;;;;23.24;77.46;94978.47;5113520;28;1084;-49
2022/08/13 09:42:25;;;;;;;;;;;;;;;23.40;78.07;94985.84;5113334;28;1840;-47
2022/08/13 09:44:56;;;;;;;;;;;;;;;23.46;76.65;94979.41;5112142;28;1173;-47
2022/08/13 09:47:23;;;;;;;;;;;;;;;23.79;76.34;94964.19;5113320;28;1039;-47
2022/08/13 09:49:49;;;;;;;;;;;;;;;23.90;74.66;94963.28;5113268;28;1910;-47
2022/08/13 09:52:16;;;;;;;;;;;;;;;24.21;74.47;94973.78;5113416;28;1036;-47
2022/08/13 09:54:42;;;;;;;;;;;;;;;24.36;73.83;94963.94;5113406;28;968;-47
2022/08/13 09:57:09;;;;;;;;;;;;;;;24.60;72.56;94957.44;5113540;28;1115;-47
2022/08/13 09:59:36;;;;;;;;;;;;;;;24.58;73.92;94959.59;5113326;28;973;-47
2022/08/13 10:02:12;;;;;;;;;;;;;;;24.46;73.27;94955.03;5113387;28;1072;-47
2022/08/13 10:04:39;;;;;;;;;;;;;;;24.65;73.54;94954.78;5113427;28;1031;-47
2022/08/13 10:07:07;;;;;;;;;;;;;;;24.70;73.13;94949.34;5113502;28;940;-47
2022/08/13 10:09:35;;;;;;;;;;;;;;;24.84;72.65;94947.06;5113194;28;1909;-48
2022/08/13 10:12:01;;;;;;;;;;;;;;;24.77;72.58;94949.16;5113186;28;1021;-50
2022/08/13 10:14:27;;;;;;;;;;;;;;;24.79;72.30;94953.28;5113505;28;977;-47
2022/08/13 10:16:54;;;;;;;;;;;;;;;24.79;72.51;94941.53;5114582;28;1083;-47
2022/08/13 10:19:20;;;;;;;;;;;;;;;24.63;70.51;94938.63;5117024;28;1004;-48
2022/08/13 10:21:47;;;;;;;;;;;;;;;24.49;73.83;94940.03;5117340;28;995;-48
2022/08/13 10:24:13;;;;;;;;;;;;;;;24.40;75.78;94939.66;5116717;28;2521;-48
2022/08/13 10:26:40;;;;;;;;;;;;;;;24.25;72.12;94940.28;5117065;28;996;-47
2022/08/13 10:29:08;;;;;;;;;;;;;;;24.08;75.41;94942.22;5117008;28;1062;-47
2022/08/13 10:31:34;;;;;;;;;;;;;;;23.85;76.05;94943.25;5116844;28;1910;-47
2022/08/13 10:34:01;;;;;;;;;;;;;;;23.85;75.81;94937.78;5116841;28;1026;-47
2022/08/13 10:36:27;;;;;;;;;;;;;;;23.87;76.69;94939.19;5116863;28;1869;-47
2022/08/13 10:38:54;;;;;;;;;;;;;;;24.00;74.44;94934.44;5116743;28;1043;-47
2022/08/13 10:41:21;;;;;;;;;;;;;;;24.10;75.23;94923.69;5116734;28;1045;-47
2022/08/13 10:43:47;;;;;;;;;;;;;;;24.15;76.13;94929.22;5116620;28;1967;-47
2022/08/13 10:46:16;;;;;;;;;;;;;;;24.10;75.00;94926.41;5116638;28;957;-47
2022/08/13 10:48:43;;;;;;;;;;;;;;;23.94;74.19;94931.66;5116849;28;976;-47
2022/08/13 10:51:09;;;;;;;;;;;;;;;23.86;74.43;94931.25;5116444;28;1987;-47
2022/08/13 10:56:20;;;;;;;;;;;;;;;23.56;77.40;94935.09;5116531;28;972;-49
2022/08/13 10:58:46;;;;;;;;;;;;;;;23.56;77.84;94929.63;5116140;28;1020;-48
2022/08/13 11:01:12;;;;;;;;;;;;;;;23.73;79.23;94932.38;5116351;28;1073;-48
2022/08/13 11:03:38;;;;;;;;;;;;;;;23.83;78.93;94929.00;5116479;27;960;-48
2022/08/13 11:06:06;;;;;;;;;;;;;;;24.04;78.42;94932.88;5116143;28;960;-48
2022/08/13 11:08:38;;;;;;;;;;;;;;;24.19;78.51;94924.91;5116291;28;1003;-48
2022/08/13 11:11:05;;;;;;;;;;;;;;;24.34;76.63;94914.19;5115984;28;1910;-48
2022/08/13 11:13:31;;;;;;;;;;;;;;;24.50;74.53;94911.66;5116360;28;964;-48
2022/08/13 11:16:03;;;;;;;;;;;;;;;24.45;75.35;94915.13;5116172;28;940;-49
2022/08/13 11:18:30;;;;;;;;;;;;;;;24.47;74.33;94910.25;5116232;28;1189;-48
2022/08/13 11:21:08;;;;;;;;;;;;;;;24.48;74.87;94906.44;5115933;28;1125;-49
2022/08/13 11:23:35;;;;;;;;;;;;;;;24.43;74.25;94900.06;5116183;28;2691;-49
2022/08/13 11:26:01;;;;;;;;;;;;;;;24.51;73.92;94896.88;5114566;28;1028;-49
2022/08/13 11:28:27;;;;;;;;;;;;;;;24.46;73.40;94908.59;5115990;28;976;-49
2022/08/13 11:30:54;;;;;;;;;;;;;;;24.41;72.38;94899.50;5115600;28;1973;-49
2022/08/13 11:33:21;;;;;;;;;;;;;;;24.29;72.32;94895.00;5115796;28;1066;-49
2022/08/13 11:35:47;;;;;;;;;;;;;;;24.28;73.38;94895.22;5115564;28;957;-49
2022/08/13 11:38:14;;;;;;;;;;;;;;;24.26;74.69;94881.81;5114429;28;976;-49
2022/08/13 11:40:45;;;;;;;;;;;;;;;24.28;72.83;94895.22;5115699;28;1012;-49
2022/08/13 11:43:11;;;;;;;;;;;;;;;24.27;74.78;94885.41;5115667;28;1153;-49
2022/08/13 11:45:37;;;;;;;;;;;;;;;24.15;73.23;94877.34;5114332;28;1125;-49
2022/08/13 11:48:05;;;;;;;;;;;;;;;24.10;75.59;94886.25;5115456;28;1234;-48
2022/08/13 11:50:31;;;;;;;;;;;;;;;24.22;74.14;94877.94;5115529;28;1901;-48
2022/08/13 11:52:57;;;;;;;;;;;;;;;24.26;75.47;94867.34;5115698;28;1059;-49
2022/08/13 11:55:23;;;;;;;;;;;;;;;24.28;75.64;94868.75;5115357;28;1989;-49
2022/08/13 11:57:58;;;;;;;;;;;;;;;24.38;76.16;94869.94;5115437;28;968;-49
2022/08/13 12:00:24;;;;;;;;;;;;;;;24.49;73.71;94861.63;5114958;28;1053;-48
2022/08/13 12:02:50;;;;;;;;;;;;;;;24.55;73.43;94857.09;5113950;28;927;-48
2022/08/13 12:05:16;;;;;;;;;;;;;;;24.65;74.40;94872.78;5115134;28;969;-49
2022/08/13 12:07:42;;;;;;;;;;;;;;;24.53;71.49;94860.06;5115389;27;989;-48
2022/08/13 12:10:08;;;;;;;;;;;;;;;24.51;73.98;94867.69;5114868;28;1999;-49
2022/08/13 12:12:34;;;;;;;;;;;;;;;24.46;72.82;94869.53;5113912;28;1616;-49
2022/08/13 12:15:00;;;;;;;;;;;;;;;24.41;72.21;94872.19;5115134;28;965;-49
2022/08/13 12:17:27;;;;;;;;;;;;;;;24.49;71.74;94863.53;5114762;28;1105;-49
2022/08/13 12:19:53;;;;;;;;;;;;;;;24.47;71.62;94877.47;5148064;27;1015;-48
2022/08/13 12:22:19;;;;;;;;;;;;;;;24.53;71.63;94867.44;5114892;28;1054;-48
2022/08/13 12:24:45;;;;;;;;;;;;;;;24.53;71.96;94862.00;5114860;28;1024;-48
2022/08/13 12:27:11;;;;;;;;;;;;;;;24.62;71.95;94865.06;5114407;28;968;-48
2022/08/13 12:29:37;;;;;;;;;;;;;;;24.61;71.81;94863.44;5114670;28;1914;-48
2022/08/13 12:32:03;;;;;;;;;;;;;;;24.62;69.90;94854.13;5114484;28;1071;-50
2022/08/13 12:34:29;;;;;;;;;;;;;;;24.64;69.65;94852.78;5114980;28;1027;-48
2022/08/13 12:36:55;;;;;;;;;;;;;;;24.65;69.29;94848.19;5114644;28;1032;-48
2022/08/13 12:39:21;;;;;;;;;;;;;;;24.76;71.53;94844.47;5114187;28;975;-48
2022/08/13 12:41:47;;;;;;;;;;;;;;;24.81;70.01;94832.75;5114325;28;1842;-49
2022/08/13 12:44:13;;;;;;;;;;;;;;;24.80;69.67;94828.38;5114339;28;1216;-50
2022/08/13 12:46:39;;;;;;;;;;;;;;;24.79;70.16;94826.72;5113215;28;1044;-50
2022/08/13 12:49:06;;;;;;;;;;;;;;;24.73;68.17;94817.63;5114327;28;1021;-51
2022/08/13 12:51:32;;;;;;;;;;;;;;;24.98;69.96;94822.50;5114424;28;1905;-51
2022/08/13 12:53:58;;;;;;;;;;;;;;;25.20;67.69;94816.16;5113172;28;1102;-51
2022/08/13 12:56:24;;;;;;;;;;;;;;;25.22;65.93;94809.31;5114245;28;1016;-50
2022/08/13 12:58:50;;;;;;;;;;;;;;;25.26;68.28;94806.94;5114306;28;1003;-50
2022/08/13 13:01:16;;;;;;;;;;;;;;;25.26;67.28;94805.00;5113997;28;980;-50
2022/08/13 13:03:42;;;;;;;;;;;;;;;25.20;66.62;94802.47;5114173;28;975;-51
2022/08/13 13:06:08;;;;;;;;;;;;;;;25.22;67.74;94805.78;5114184;28;1052;-50
2022/08/13 13:08:34;;;;;;;;;;;;;;;25.21;65.60;94809.59;5114295;28;1039;-50
2022/08/13 13:11:03;;;;;;;;;;;;;;;25.25;64.54;94813.47;5114046;28;1905;-50
2022/08/13 13:13:29;;;;;;;;;;;;;;;25.21;65.87;94813.16;5113796;28;1083;-51
2022/08/13 13:15:56;;;;;;;;;;;;;;;25.13;66.08;94813.63;5113709;28;1250;-50
2022/08/13 13:18:25;;;;;;;;;;;;;;;25.13;63.11;94817.19;5113428;28;1098;-50
2022/08/13 13:20:52;;;;;;;;;;;;;;;25.21;63.27;94806.84;5114232;28;1008;-50
2022/08/13 13:23:19;;;;;;;;;;;;;;;25.31;63.12;94812.44;5113944;28;1032;-50
2022/08/13 13:25:45;;;;;;;;;;;;;;;25.32;64.01;94811.34;5114019;28;1231;-50
2022/08/13 13:28:16;;;;;;;;;;;;;;;25.35;62.44;94808.09;5113745;28;1007;-50